createdAt,value
2018-09-14T10:44:09.354Z,3.73
2018-09-14T10:46:48.739Z,3.15
2018-09-14T10:49:16.910Z,3.70
2018-09-14T10:51:44.927Z,3.33
2018-09-14T10:54:13.029Z,4.00
2018-09-14T10:56:41.150Z,4.57
2018-09-14T10:59:09.355Z,3.83
2018-09-14T11:01:37.355Z,4.60
2018-09-14T11:04:05.418Z,3.93
2018-09-14T11:06:33.549Z,3.67
2018-09-14T11:09:01.527Z,4.60
2018-09-14T11:11:29.595Z,5.87
2018-09-14T11:13:58.026Z,4.50
2018-09-14T11:16:26.044Z,4.95
2018-09-14T11:18:54.397Z,4.05
2018-09-14T11:21:22.385Z,8.33
2018-09-14T11:23:50.442Z,4.72
2018-09-14T11:26:18.659Z,7.37
2018-09-14T11:28:47.003Z,3.77
2018-09-14T11:31:15.059Z,3.45
2018-09-14T11:33:43.482Z,3.92
2018-09-14T11:36:11.530Z,3.58
2018-09-14T11:38:39.587Z,3.95
2018-09-14T11:41:07.718Z,3.42
2018-09-14T11:43:35.973Z,3.17
2018-09-14T11:46:04.156Z,3.87
2018-09-14T11:48:32.381Z,3.20
2018-09-14T11:51:00.393Z,3.35
2018-09-14T11:53:28.454Z,2.62
2018-09-14T11:55:56.511Z,3.90
2018-09-14T11:58:24.705Z,3.53
2018-09-14T12:00:53.178Z,2.73
2018-09-14T12:03:21.683Z,2.58
2018-09-14T12:05:49.711Z,2.50
2018-09-14T12:08:17.728Z,4.10
2018-09-14T12:10:45.820Z,2.98
2018-09-14T12:13:13.966Z,2.72
2018-09-14T12:15:42.018Z,3.25
2018-09-14T12:18:10.299Z,2.58
2018-09-14T12:20:38.618Z,2.42
2018-09-14T12:23:06.731Z,2.70
2018-09-14T12:25:37.378Z,2.17
2018-09-14T12:28:06.171Z,2.83
2018-09-14T12:30:34.464Z,4.90
2018-09-14T12:33:02.603Z,2.50
2018-09-14T12:35:30.749Z,2.35
2018-09-14T12:37:59.008Z,2.33
2018-09-14T12:40:27.218Z,3.02
2018-09-14T12:42:55.300Z,2.40
2018-09-14T12:45:23.403Z,5.10
2018-09-14T12:47:51.494Z,2.95
2018-09-14T12:50:19.613Z,2.37
2018-09-14T12:52:47.777Z,2.52
2018-09-14T12:55:16.262Z,2.10
2018-09-14T12:57:44.360Z,2.17
2018-09-14T13:00:13.436Z,1.90
2018-09-14T13:02:41.586Z,1.90
2018-09-14T13:05:09.603Z,2.60
2018-09-14T13:07:37.662Z,1.80
2018-09-14T13:10:06.767Z,1.60
2018-09-14T13:12:34.790Z,1.62
2018-09-14T13:15:02.855Z,2.00
2018-09-14T13:17:30.998Z,2.12
2018-09-14T13:19:59.275Z,1.72
2018-09-14T13:22:27.305Z,1.82
2018-09-14T13:24:55.801Z,1.62
2018-09-14T13:27:23.951Z,2.20
2018-09-14T13:29:52.019Z,1.90
2018-09-14T13:32:21.245Z,1.60
2018-09-14T13:34:49.314Z,1.72
2018-09-14T13:37:17.397Z,2.00
2018-09-14T13:39:46.478Z,1.82
2018-09-14T13:42:14.514Z,1.70
2018-09-14T13:44:42.576Z,4.20
2018-09-14T13:47:10.694Z,2.00
2018-09-14T13:49:38.767Z,1.62
2018-09-14T13:52:06.855Z,1.77
2018-09-14T13:54:35.037Z,1.85
2018-09-14T13:57:03.126Z,2.27
2018-09-14T13:59:31.163Z,1.70
2018-09-14T14:01:59.523Z,1.37
2018-09-14T14:04:27.803Z,1.32
2018-09-14T14:06:55.847Z,1.27
2018-09-14T14:09:24.159Z,1.70
2018-09-14T14:11:52.292Z,1.45
2018-09-14T14:14:20.384Z,1.27
2018-09-14T14:16:48.560Z,1.30
2018-09-14T14:19:16.528Z,1.52
2018-09-14T14:21:44.588Z,2.10
2018-09-14T14:24:12.639Z,1.37
2018-09-14T14:26:40.695Z,1.37
2018-09-14T14:29:08.799Z,1.50
2018-09-14T14:31:37.211Z,1.22
2018-09-14T15:12:18.267Z,1.77
2018-09-14T15:14:46.127Z,1.20
2018-09-14T15:17:14.258Z,1.22
2018-09-14T15:19:42.366Z,1.37
2018-09-14T15:22:10.497Z,1.32
2018-09-14T15:24:38.565Z,2.17
2018-09-14T15:27:06.586Z,3.27
2018-09-14T15:29:34.795Z,1.27
2018-09-14T15:32:02.905Z,1.67
2018-09-14T15:34:30.978Z,0.88
2018-09-14T15:46:51.519Z,2.30
2018-09-14T15:49:19.675Z,2.42
2018-09-14T15:51:47.721Z,1.72
2018-09-14T15:54:15.859Z,1.52
2018-09-14T15:56:44.141Z,3.37
2018-09-14T15:59:12.350Z,3.75
2018-09-14T16:01:40.671Z,2.50
2018-09-14T16:04:09.630Z,2.42
2018-09-14T16:06:37.689Z,1.65
2018-09-14T16:09:08.574Z,1.90
2018-09-14T16:11:36.689Z,3.72
2018-09-14T16:14:04.820Z,2.50
2018-09-14T16:16:33.375Z,3.52
2018-09-14T16:19:01.623Z,1.30
2018-09-14T16:21:29.823Z,1.40
2018-09-14T16:23:57.902Z,1.22
2018-09-14T16:26:25.970Z,1.98
2018-09-14T16:28:54.184Z,1.42
2018-09-14T16:31:22.462Z,1.90
2018-09-14T16:33:50.563Z,1.63
2018-09-14T16:36:18.647Z,2.13
2018-09-14T16:38:47.119Z,1.37
2018-09-14T16:41:15.235Z,2.57
2018-09-14T16:43:43.267Z,5.80
2018-09-14T16:46:11.537Z,5.15
2018-09-14T16:48:39.953Z,3.47
2018-09-14T16:51:07.968Z,5.50
2018-09-14T16:53:36.531Z,1.70
2018-09-14T16:56:04.707Z,3.27
2018-09-14T17:40:14.231Z,2.52
2018-09-14T18:09:46.766Z,2.42
2018-09-14T18:12:14.931Z,2.60
2018-09-14T18:14:42.937Z,1.65
2018-09-14T18:17:11.299Z,2.17
2018-09-14T18:19:39.350Z,8.23
2018-09-14T18:22:07.407Z,6.47
2018-09-14T18:24:36.019Z,3.00
2018-09-14T18:27:04.095Z,3.50
2018-09-14T18:29:32.313Z,2.95
2018-09-14T18:32:00.453Z,3.60
2018-09-14T18:34:29.407Z,2.85
2018-09-14T18:36:58.298Z,2.27
2018-09-14T18:39:26.314Z,2.62
2018-09-14T18:41:55.274Z,2.47
2018-09-14T18:44:23.451Z,2.98
2018-09-14T18:46:51.650Z,2.70
2018-09-14T18:49:19.671Z,2.80
2018-09-14T18:51:47.727Z,2.87
2018-09-14T18:54:16.193Z,3.08
2018-09-14T18:56:44.626Z,3.00
2018-09-14T18:59:12.762Z,2.45
2018-09-14T19:01:40.976Z,3.50
2018-09-14T19:04:09.016Z,2.52
2018-09-14T19:06:37.731Z,3.10
2018-09-14T19:09:07.916Z,3.52
2018-09-14T19:11:37.156Z,3.52
2018-09-14T19:14:05.206Z,3.12
2018-09-14T19:16:34.115Z,3.42
2018-09-14T19:19:02.389Z,3.30
2018-09-14T19:21:30.502Z,3.67
2018-09-14T19:23:58.603Z,3.10
2018-09-14T19:26:26.811Z,3.15
2018-09-14T19:28:54.919Z,3.72
2018-09-14T19:31:23.083Z,4.00
2018-09-14T19:33:51.638Z,3.30
2018-09-14T19:36:19.913Z,3.75
2018-09-14T19:38:48.067Z,4.03
2018-09-14T19:41:16.168Z,3.87
2018-09-14T19:43:44.203Z,3.10
2018-09-14T19:46:13.310Z,3.50
2018-09-14T19:48:41.703Z,3.75
2018-09-14T19:51:09.724Z,3.75
2018-09-14T19:53:37.740Z,3.62
2018-09-14T19:56:05.804Z,3.77
2018-09-14T19:58:33.987Z,4.40
2018-09-14T20:01:02.152Z,3.83
2018-09-14T20:03:30.323Z,3.00
2018-09-14T20:05:58.660Z,3.00
2018-09-14T20:08:26.746Z,3.67
2018-09-14T20:14:26.106Z,3.40
2018-09-14T20:16:54.216Z,3.20
2018-09-14T20:19:22.256Z,3.52
2018-09-14T20:21:50.703Z,3.27
2018-09-14T20:24:18.927Z,3.22
2018-09-14T20:26:47.038Z,3.27
2018-09-14T20:29:15.089Z,4.25
2018-09-14T20:31:43.324Z,3.20
2018-09-14T20:34:11.321Z,3.33
2018-09-14T20:36:39.481Z,3.15
2018-09-14T20:39:09.131Z,3.35
2018-09-14T20:41:37.237Z,3.35
2018-09-14T20:44:05.418Z,3.70
2018-09-14T20:46:33.612Z,4.25
2018-09-14T20:49:01.648Z,3.17
2018-09-14T20:51:29.719Z,3.40
2018-09-14T20:53:58.257Z,3.67
2018-09-14T20:56:26.386Z,3.22
2018-09-14T20:58:54.490Z,3.72
2018-09-14T21:01:22.730Z,4.33
2018-09-14T21:03:50.769Z,3.67
2018-09-14T21:06:18.887Z,3.50
2018-09-14T21:08:46.947Z,3.50
2018-09-14T21:11:15.130Z,2.80
2018-09-14T21:13:43.299Z,3.37
2018-09-14T21:16:12.390Z,3.30
2018-09-14T21:18:40.407Z,3.37
2018-09-14T21:21:08.840Z,3.65
2018-09-14T21:23:36.966Z,3.77
2018-09-14T21:26:05.339Z,4.50
2018-09-14T21:28:33.358Z,4.50
2018-09-14T21:31:01.890Z,3.42
2018-09-14T21:33:29.914Z,3.83
2018-09-14T21:35:58.166Z,3.35
2018-09-14T21:38:26.355Z,3.70
2018-09-14T21:40:55.283Z,3.92
2018-09-14T21:43:23.597Z,3.30
2018-09-14T21:45:52.277Z,3.58
2018-09-14T21:48:20.388Z,3.55
2018-09-14T21:50:48.418Z,3.70
2018-09-14T21:53:16.614Z,5.62
2018-09-14T21:55:45.620Z,3.90
2018-09-14T21:58:13.709Z,4.37
2018-09-14T22:00:48.331Z,3.60
2018-09-14T22:03:16.341Z,3.33
2018-09-14T22:05:44.339Z,3.20
2018-09-14T22:08:12.423Z,3.87
2018-09-14T22:10:40.431Z,3.75
2018-09-14T22:13:08.490Z,3.55
2018-09-14T22:15:36.543Z,3.50
2018-09-14T22:18:05.011Z,3.60
2018-09-14T22:20:33.103Z,3.70
2018-09-14T22:23:01.387Z,3.55
2018-09-14T22:25:29.459Z,3.75
2018-09-14T22:27:57.708Z,3.67
2018-09-14T22:30:25.783Z,3.00
2018-09-14T22:32:53.959Z,3.85
2018-09-14T22:35:22.075Z,3.65
2018-09-14T22:37:50.218Z,4.30
2018-09-14T22:40:18.291Z,4.03
2018-09-14T22:42:46.465Z,3.37
2018-09-14T22:45:14.553Z,3.87
2018-09-14T22:47:42.618Z,4.10
2018-09-14T22:50:10.710Z,3.90
2018-09-14T22:52:39.140Z,4.20
2018-09-14T22:55:07.323Z,3.63
2018-09-14T22:57:35.374Z,4.10
2018-09-14T23:00:03.666Z,4.08
2018-09-14T23:02:31.822Z,4.22
2018-09-14T23:04:59.895Z,3.85
2018-09-14T23:07:28.303Z,4.37
2018-09-14T23:09:56.334Z,4.20
2018-09-14T23:12:24.383Z,4.30
2018-09-14T23:14:52.731Z,4.03
2018-09-14T23:17:20.758Z,3.58
2018-09-14T23:19:49.174Z,3.83
2018-09-14T23:22:17.382Z,4.08
2018-09-14T23:24:45.415Z,3.67
2018-09-14T23:27:14.538Z,4.00
2018-09-14T23:29:42.707Z,3.90
2018-09-14T23:32:10.730Z,5.37
2018-09-14T23:34:38.766Z,3.95
2018-09-14T23:37:06.822Z,4.03
2018-09-14T23:39:34.864Z,3.90
2018-09-14T23:42:02.917Z,4.70
2018-09-14T23:44:30.979Z,3.33
2018-09-14T23:46:59.084Z,4.12
2018-09-14T23:49:27.132Z,3.92
2018-09-14T23:51:55.295Z,4.17
2018-09-14T23:54:23.422Z,3.67
2018-09-14T23:56:51.506Z,4.45
2018-09-14T23:59:19.865Z,3.75
